This is the latest recevied weather packets stored in our database for station/object KD5BIG-13. If no packets are shown the sender has not sent any weather packets the latest 10 day(s).
| Time | Temp. | Humidity | Pressure | Rain* | Wind** | Luminosity | Snow |
|---|---|---|---|---|---|---|---|
| 1777240481 | 29.44° C | 69% | 1013.6 hPa | 0 mm | - | 163 W/m² | - |
| 1777240178 | 29.44° C | 67% | 1013.7 hPa | 0 mm | - | 175 W/m² | - |
| 1777239876 | 30° C | 70% | 1013.7 hPa | 0 mm | - | 179 W/m² | - |
| 1777239573 | 29.44° C | 68% | 1013.7 hPa | 0 mm | - | 169 W/m² | - |
| 1777239268 | 29.44° C | 71% | 1013.8 hPa | 0 mm | - | 209 W/m² | - |
| 1777238966 | 29.44° C | 73% | 1013.8 hPa | 0 mm | - | 199 W/m² | - |
| 1777238663 | 29.44° C | 69% | 1013.7 hPa | 0 mm | - | 223 W/m² | - |
| 1777238360 | 29.44° C | 70% | 1014 hPa | 0 mm | - | 290 W/m² | - |
| 1777238056 | 29.44° C | 71% | 1013.8 hPa | 0 mm | - | 585 W/m² | - |
| 1777237753 | 30° C | 72% | 1013.6 hPa | 0 mm | - | 328 W/m² | - |
| 1777237450 | 29.44° C | 68% | 1013.9 hPa | 0 mm | - | 601 W/m² | - |
| 1777237147 | 29.44° C | 71% | 1014 hPa | 0 mm | - | 217 W/m² | - |
| 1777236845 | 30° C | 69% | 1013.9 hPa | 0 mm | - | 216 W/m² | - |
| 1777236544 | 29.44° C | 66% | 1014.1 hPa | 0 mm | - | 659 W/m² | - |
| 1777236241 | 29.44° C | 71% | 1014.1 hPa | 0 mm | - | 305 W/m² | - |
| 1777235936 | 30° C | 66% | 1014.2 hPa | 0 mm | - | 762 W/m² | - |
| 1777235633 | 30° C | 66% | 1014.1 hPa | 0 mm | - | 373 W/m² | - |
| 1777235330 | 29.44° C | 67% | 1014.2 hPa | 0 mm | - | 410 W/m² | - |
| 1777235026 | 29.44° C | 67% | 1014.3 hPa | 0 mm | - | 238 W/m² | - |
| 1777234723 | 29.44° C | 69% | 1014.4 hPa | 0 mm | - | 423 W/m² | - |
| 1777234418 | 30° C | 66% | 1014.3 hPa | 0 mm | - | 447 W/m² | - |
| 1777234113 | 30° C | 67% | 1014.4 hPa | 0 mm | - | 421 W/m² | - |
| 1777233810 | 29.44° C | 68% | 1014.3 hPa | 0 mm | - | 474 W/m² | - |
| 1777233506 | 30° C | 66% | 1014.4 hPa | 0 mm | - | 350 W/m² | - |
| 1777233205 | 30° C | 66% | 1014.4 hPa | 0 mm | - | 486 W/m² | - |
* Rain latest hour (hover to see other rain measurements)
** Current wind speed in m/s (hover to see current wind gust speed)